KLOU/LOU METAR and TAF weather

Enter ICAO airport designator
Station Type Date Time Source
KLOU METAR 2019/10/21 01:53 UTC NOAA

KLOU 210153Z 16006KT 10SM CLR 18/12 A2993 RMK AO2 SLP132 T01780122


Station Type Date Time Source
KLOU Decoded METAR 2019/10/21 01:53 UTC NOAA

BOWMAN FIELD, KY, United States (KLOU) 38-14N 085-40W 164M
Oct 20, 2019 - 09:53 PM EDT / 2019.10.21 0153 UTC
Wind: from the SSE (160 degrees) at 7 MPH (6 KT):0
Visibility: 10 mile(s):0
Sky conditions: clear
Temperature: 64.0 F (17.8 C)
Dew Point: 54.0 F (12.2 C)
Relative Humidity: 69%
Pressure (altimeter): 29.93 in. Hg (1013 hPa)
ob: KLOU 210153Z 16006KT 10SM CLR 18/12 A2993 RMK AO2 SLP132 T01780122
cycle: 2

Station Type Date Time Source
KLOU TAF UTC NOAA

Error!

Example: see airport list